Bluetown, Texas
Current Conditions -  °F | °C
As of 5:55 PM on Saturday 25 Oct 2014 (Local Time) from KT65 Reporting Station
Clear Clear  
Wind Chill: 84°   Ceiling: Unl
Heat Index: 84°   Visibility: 10mi
Dew Point: 61°   Wind: 8mph
Humidity: 46%   Direction: 90°E
Pressure: 30.06"   Gusts: NA
Location:  26.0737°N, 97.8225°W
Report Text: KT65 252255Z AUTO 09007KT 10SM CLR 29/16 A3006 RMK AO2 T02880162
Loading
Personal Weather Stations






























Interactive Weather Map
Tropical Storm Tracking
New forecast layout! Learn more

10-Day Weather Forecast

Advertisements
Track Severe Weather on mobile